Time;durP1;ratioP1;P1;durP2;ratioP2;P2;SDS_P1;SDS_P2;PMS_P1;PMS_P2;Temp;Humidity;BMP_temperature;BMP_pressure;BME280_temperature;BME280_humidity;BME280_pressure;Samples;Min_cycle;Max_cycle;Signal;HPM_P1;HPM_P2
2021/06/26 00:00:53;;;;;;;11.75;8.23;;;;;;;16.61;nan;101923.94;5027409;28;20063;-49
2021/06/26 00:03:24;;;;;;;10.20;7.85;;;;;;;16.55;nan;101930.41;5026619;28;20025;-49
2021/06/26 00:05:50;;;;;;;9.85;7.97;;;;;;;16.51;nan;101926.56;5027760;28;20032;-48
2021/06/26 00:08:17;;;;;;;12.57;9.15;;;;;;;16.39;nan;101934.88;5027717;28;20793;-48
2021/06/26 00:10:44;;;;;;;13.63;8.25;;;;;;;16.35;nan;101928.34;5026535;28;20160;-48
2021/06/26 00:13:10;;;;;;;14.52;8.30;;;;;;;16.31;nan;101929.91;5028435;28;20028;-51
2021/06/26 00:15:35;;;;;;;10.25;7.63;;;;;;;16.25;nan;101925.53;5006591;28;20051;-48
2021/06/26 00:18:01;;;;;;;10.32;7.68;;;;;;;16.18;nan;101927.66;5026107;28;20028;-48
2021/06/26 00:20:27;;;;;;;13.27;8.13;;;;;;;16.06;nan;101930.50;5029435;28;20155;-49
2021/06/26 00:22:53;;;;;;;11.93;8.02;;;;;;;16.02;nan;101929.41;5028559;28;20052;-49
2021/06/26 00:25:19;;;;;;;11.82;9.13;;;;;;;15.97;nan;101924.75;5030135;28;20032;-48
2021/06/26 00:27:44;;;;;;;11.65;9.25;;;;;;;15.92;nan;101923.88;5028065;28;20037;-49
2021/06/26 00:30:10;;;;;;;15.45;10.43;;;;;;;15.90;nan;101926.84;5025515;28;20615;-49
2021/06/26 00:32:36;;;;;;;11.10;9.43;;;;;;;15.83;nan;101925.41;5028434;28;20495;-48
2021/06/26 00:35:02;;;;;;;11.73;9.15;;;;;;;15.81;nan;101925.69;5028403;28;20155;-48
2021/06/26 00:37:28;;;;;;;14.73;10.50;;;;;;;15.73;nan;101926.13;5027896;28;20075;-48
2021/06/26 00:39:53;;;;;;;12.55;9.98;;;;;;;15.70;nan;101932.84;5027466;28;20065;-48
2021/06/26 00:42:19;;;;;;;13.55;10.18;;;;;;;15.59;nan;101935.69;5030686;28;20028;-48
2021/06/26 00:44:44;;;;;;;12.70;9.57;;;;;;;15.57;nan;101935.91;5028513;28;20708;-50
2021/06/26 00:47:12;;;;;;;12.43;9.95;;;;;;;15.49;nan;101943.63;5028916;28;20051;-48
2021/06/26 00:49:40;;;;;;;15.65;10.38;;;;;;;15.46;nan;101947.66;5028825;28;20140;-48
2021/06/26 00:52:07;;;;;;;15.63;10.75;;;;;;;15.42;nan;101947.31;5006898;28;20029;-49
2021/06/26 00:54:34;;;;;;;15.02;9.82;;;;;;;15.39;nan;101947.03;5028061;28;22094;-49
2021/06/26 00:57:00;;;;;;;14.43;10.38;;;;;;;15.31;nan;101942.06;5028662;28;21560;-48
2021/06/26 00:59:26;;;;;;;15.73;10.73;;;;;;;15.21;nan;101944.63;5028830;28;20028;-48
2021/06/26 01:01:52;;;;;;;13.00;10.07;;;;;;;15.13;nan;101936.97;5026291;28;20032;-49
2021/06/26 01:04:17;;;;;;;14.35;9.85;;;;;;;15.04;nan;101934.69;5028573;28;20044;-49
2021/06/26 01:06:43;;;;;;;12.77;9.77;;;;;;;14.98;nan;101942.97;5026303;28;20040;-48
2021/06/26 01:09:08;;;;;;;15.32;10.98;;;;;;;14.93;nan;101942.91;5026520;28;20115;-47
2021/06/26 01:11:34;;;;;;;15.52;11.40;;;;;;;14.87;nan;101943.88;5028682;28;20029;-48
2021/06/26 01:14:01;;;;;;;16.23;10.50;;;;;;;14.85;nan;101946.00;5030022;28;20029;-49
2021/06/26 01:16:27;;;;;;;15.50;11.20;;;;;;;14.84;nan;101950.59;5031114;28;20036;-48
2021/06/26 01:18:52;;;;;;;16.45;11.20;;;;;;;14.80;nan;101952.97;5029214;28;20032;-49
2021/06/26 01:21:18;;;;;;;16.30;12.32;;;;;;;14.82;nan;101945.44;5029806;28;20153;-47
2021/06/26 01:23:49;;;;;;;19.42;12.73;;;;;;;14.86;nan;101944.94;5030864;28;20031;-49
2021/06/26 01:26:16;;;;;;;16.95;13.43;;;;;;;14.92;nan;101954.75;5031516;28;20025;-48
2021/06/26 01:28:41;;;;;;;21.00;14.65;;;;;;;14.92;nan;101960.97;5031835;28;20145;-49
2021/06/26 01:31:07;;;;;;;18.92;14.10;;;;;;;14.96;nan;101961.28;5030911;28;20528;-48
2021/06/26 01:33:33;;;;;;;19.75;13.95;;;;;;;14.95;nan;101959.66;5030930;28;20092;-47
2021/06/26 01:35:58;;;;;;;19.88;13.40;;;;;;;14.92;nan;101960.16;5030985;28;20041;-49
2021/06/26 01:38:24;;;;;;;18.83;13.98;;;;;;;14.89;nan;101950.66;5031630;28;20094;-48
2021/06/26 01:40:49;;;;;;;20.48;13.95;;;;;;;14.85;nan;101946.00;5030243;28;20791;-49
2021/06/26 01:43:15;;;;;;;18.60;13.35;;;;;;;14.80;nan;101946.75;5031246;28;20029;-48
2021/06/26 01:45:40;;;;;;;18.23;14.20;;;;;;;14.77;nan;101948.06;5029343;28;20044;-50
2021/06/26 01:48:07;;;;;;;20.80;13.45;;;;;;;14.71;nan;101949.03;5032305;28;20032;-48
2021/06/26 01:50:32;;;;;;;19.83;14.27;;;;;;;14.65;nan;101952.72;5031160;28;20088;-48
2021/06/26 01:53:00;;;;;;;21.33;13.93;;;;;;;14.57;nan;101960.41;5029404;28;20025;-48
2021/06/26 01:55:26;;;;;;;18.58;14.05;;;;;;;14.47;nan;101961.88;5030001;28;20169;-48
2021/06/26 01:57:54;;;;;;;17.67;13.68;;;;;;;14.42;nan;101967.16;5030529;28;20028;-48
2021/06/26 02:00:22;;;;;;;20.63;14.13;;;;;;;14.39;nan;101964.13;5031816;28;20498;-48
2021/06/26 02:02:48;;;;;;;21.92;12.77;;;;;;;14.34;nan;101969.41;5028536;28;20052;-49
2021/06/26 02:05:17;;;;;;;23.42;13.77;;;;;;;14.27;nan;101971.47;5031995;28;20044;-49
2021/06/26 02:07:46;;;;;;;19.67;13.20;;;;;;;14.23;nan;101970.31;5029715;28;20030;-48
2021/06/26 02:10:13;;;;;;;27.73;14.20;;;;;;;14.18;nan;101969.19;5010999;28;20035;-48
2021/06/26 02:12:38;;;;;;;29.42;13.88;;;;;;;14.12;nan;101964.72;5028962;28;20780;-48
2021/06/26 02:15:05;;;;;;;27.13;12.93;;;;;;;14.06;nan;101971.09;5029993;28;20033;-48
2021/06/26 02:17:31;;;;;;;19.83;12.85;;;;;;;14.01;nan;101971.00;5026572;28;20475;-48
2021/06/26 02:19:56;;;;;;;16.10;12.52;;;;;;;13.95;nan;101969.25;5031226;28;20040;-47
2021/06/26 02:22:22;;;;;;;16.75;12.55;;;;;;;13.92;nan;101975.13;5024093;28;20197;-48
2021/06/26 02:24:47;;;;;;;17.33;13.18;;;;;;;13.91;nan;101976.19;5028174;28;20098;-50
2021/06/26 02:27:13;;;;;;;24.17;14.18;;;;;;;13.89;nan;101972.94;5025080;28;20033;-49
2021/06/26 02:29:39;;;;;;;19.10;14.02;;;;;;;13.87;nan;101973.16;5033554;28;20143;-47
2021/06/26 02:32:05;;;;;;;20.38;13.93;;;;;;;13.83;nan;101972.03;5031661;28;20083;-48
2021/06/26 02:34:31;;;;;;;18.08;13.55;;;;;;;13.81;nan;101973.28;5028078;28;20064;-48
2021/06/26 02:36:56;;;;;;;21.77;14.18;;;;;;;13.79;nan;101976.22;5027491;28;20035;-48
2021/06/26 02:39:22;;;;;;;19.27;14.23;;;;;;;13.79;nan;101978.09;5028634;28;20025;-48
2021/06/26 02:41:47;;;;;;;20.08;13.32;;;;;;;13.76;nan;101976.72;5029586;28;20072;-48
2021/06/26 02:44:13;;;;;;;21.52;13.38;;;;;;;13.72;nan;101972.88;5029655;28;20527;-50
2021/06/26 02:46:38;;;;;;;25.75;15.85;;;;;;;13.69;nan;101973.34;5027492;28;20025;-48
2021/06/26 02:49:04;;;;;;;23.40;14.80;;;;;;;13.65;nan;101974.88;5031775;28;20029;-48
2021/06/26 02:51:30;;;;;;;25.23;14.35;;;;;;;13.62;nan;101972.66;5029206;28;20150;-47
2021/06/26 02:53:56;;;;;;;18.42;12.32;;;;;;;13.59;nan;101981.22;5032636;28;20036;-48
2021/06/26 02:56:21;;;;;;;17.77;12.55;;;;;;;13.57;nan;101980.63;5029420;28;20044;-48
2021/06/26 02:58:47;;;;;;;17.33;11.77;;;;;;;13.55;nan;101975.47;5028472;28;20040;-50
2021/06/26 03:01:12;;;;;;;18.85;12.52;;;;;;;13.51;nan;101979.72;5031128;28;20035;-48
2021/06/26 03:03:38;;;;;;;22.40;13.55;;;;;;;13.49;nan;101978.31;5029624;28;22099;-50
2021/06/26 03:06:03;;;;;;;21.00;12.45;;;;;;;13.46;nan;101976.91;5028946;28;20079;-47
2021/06/26 03:08:29;;;;;;;18.15;11.80;;;;;;;13.42;nan;101974.91;5031666;28;20466;-48
2021/06/26 03:10:54;;;;;;;18.30;12.73;;;;;;;13.38;nan;101984.53;5031918;28;20036;-48
2021/06/26 03:13:20;;;;;;;18.15;12.20;;;;;;;13.33;nan;101981.75;5028697;28;20021;-49
2021/06/26 03:15:46;;;;;;;16.58;11.95;;;;;;;13.29;nan;101986.78;5030146;28;20048;-48
2021/06/26 03:18:12;;;;;;;18.98;12.35;;;;;;;13.31;nan;101976.59;5030027;28;20031;-48
2021/06/26 03:20:37;;;;;;;18.10;12.55;;;;;;;13.28;nan;101990.50;5030387;28;20029;-48
2021/06/26 03:23:03;;;;;;;18.17;12.45;;;;;;;13.29;nan;101978.72;5027976;28;20082;-47
2021/06/26 03:25:29;;;;;;;19.00;12.32;;;;;;;13.31;nan;101984.66;5030329;28;20059;-48
2021/06/26 03:27:54;;;;;;;21.42;13.68;;;;;;;13.34;nan;101983.38;5029132;28;20094;-47
2021/06/26 03:30:20;;;;;;;16.65;11.48;;;;;;;13.36;nan;101979.38;5028785;28;20513;-48
2021/06/26 03:32:45;;;;;;;17.38;12.63;;;;;;;13.38;nan;101995.31;5031229;28;20035;-47
2021/06/26 03:35:12;;;;;;;18.42;12.95;;;;;;;13.42;nan;101997.28;5029065;28;20769;-48
2021/06/26 03:37:37;;;;;;;18.48;12.80;;;;;;;13.49;nan;101994.47;5031104;28;21898;-48
2021/06/26 03:40:04;;;;;;;18.77;13.00;;;;;;;13.53;nan;101993.75;5027609;28;20028;-48
2021/06/26 03:42:29;;;;;;;18.25;13.60;;;;;;;13.59;nan;101998.19;5027152;28;20031;-47
2021/06/26 03:44:55;;;;;;;17.27;12.52;;;;;;;13.68;nan;101995.13;5027652;28;20029;-49
2021/06/26 03:47:20;;;;;;;21.45;14.38;;;;;;;13.74;nan;102002.25;5030260;28;20626;-49
2021/06/26 03:49:46;;;;;;;21.08;14.00;;;;;;;13.81;nan;102001.03;5029751;28;20368;-48
2021/06/26 03:52:11;;;;;;;17.63;12.43;;;;;;;13.88;nan;102007.13;5030374;28;20036;-48
2021/06/26 03:54:37;;;;;;;19.35;13.13;;;;;;;14.01;nan;102016.00;5028592;28;20051;-49
2021/06/26 03:57:03;;;;;;;18.23;12.95;;;;;;;14.05;nan;102017.97;5029897;28;20066;-48
2021/06/26 03:59:29;;;;;;;19.58;13.43;;;;;;;14.08;nan;102022.88;5026280;28;20037;-47
2021/06/26 04:01:54;;;;;;;18.63;12.48;;;;;;;14.15;nan;102020.03;5029808;28;20052;-47
2021/06/26 04:04:20;;;;;;;20.17;14.13;;;;;;;14.25;nan;102022.09;5031038;28;20033;-49
2021/06/26 04:06:46;;;;;;;17.83;13.32;;;;;;;14.36;nan;102029.31;5029543;28;20474;-48
2021/06/26 04:09:12;;;;;;;18.48;13.90;;;;;;;14.45;nan;102028.72;5026476;28;20036;-48
2021/06/26 04:11:37;;;;;;;21.27;13.85;;;;;;;14.55;nan;102022.69;5025292;28;20061;-49
2021/06/26 04:14:03;;;;;;;20.23;13.70;;;;;;;14.63;nan;102024.97;5028571;28;20079;-47
2021/06/26 04:16:28;;;;;;;20.95;14.18;;;;;;;14.72;nan;102017.28;5026546;28;20128;-47
2021/06/26 04:18:54;;;;;;;19.42;14.55;;;;;;;14.85;nan;102016.16;5029741;28;20021;-47
2021/06/26 04:21:19;;;;;;;21.52;14.82;;;;;;;14.94;nan;102022.78;5028861;28;20029;-49
2021/06/26 04:23:45;;;;;;;19.67;15.15;;;;;;;15.02;nan;102020.47;5029139;28;20036;-48
2021/06/26 04:26:10;;;;;;;22.70;14.65;;;;;;;15.15;nan;102021.22;5028506;28;20327;-48
2021/06/26 04:28:36;;;;;;;18.70;13.55;;;;;;;15.27;nan;102025.47;5026662;28;20651;-50
2021/06/26 04:31:01;;;;;;;17.98;14.60;;;;;;;15.38;nan;102029.09;5028547;28;20082;-48
2021/06/26 04:33:28;;;;;;;20.70;13.48;;;;;;;15.49;nan;102021.97;5028859;28;20506;-47
2021/06/26 04:35:53;;;;;;;17.63;13.50;;;;;;;15.62;nan;102027.03;5029508;28;20156;-48
2021/06/26 04:38:21;;;;;;;21.17;13.43;;;;;;;15.75;nan;102023.94;5028262;28;20029;-49
2021/06/26 04:40:47;;;;;;;21.52;15.13;;;;;;;15.91;nan;102025.78;5028690;28;20037;-48
2021/06/26 04:43:13;;;;;;;24.58;14.80;;;;;;;16.05;nan;102022.69;5007741;28;20107;-47
2021/06/26 04:45:38;;;;;;;21.05;15.27;;;;;;;16.18;nan;102023.13;5030584;28;20768;-49
2021/06/26 04:48:04;;;;;;;23.35;15.90;;;;;;;16.32;nan;102028.91;5032105;28;20029;-48
2021/06/26 04:50:31;;;;;;;20.73;14.40;;;;;;;16.44;nan;102024.16;5029989;28;20036;-48
2021/06/26 04:52:57;;;;;;;22.83;16.35;;;;;;;16.58;nan;102025.38;5031618;28;20029;-48
2021/06/26 04:55:22;;;;;;;22.70;16.10;;;;;;;16.68;nan;102029.28;5032300;28;20058;-49
2021/06/26 04:57:48;;;;;;;21.13;15.55;;;;;;;16.83;nan;102037.53;5028570;28;20036;-47
2021/06/26 05:00:13;;;;;;;22.33;15.07;;;;;;;16.97;nan;102032.50;5031892;28;20524;-48
2021/06/26 05:02:39;;;;;;;22.00;15.48;;;;;;;17.13;nan;102034.25;5028599;28;20037;-47
2021/06/26 05:05:05;;;;;;;18.98;14.32;;;;;;;17.31;nan;102027.59;5031859;28;20052;-48
2021/06/26 05:07:31;;;;;;;22.33;13.70;;;;;;;17.44;nan;102022.53;5027848;28;20497;-48
2021/06/26 05:09:56;;;;;;;19.80;14.80;;;;;;;17.40;nan;102026.00;5030945;28;20166;-47
2021/06/26 05:12:22;;;;;;;20.98;15.60;;;;;;;17.60;nan;102031.53;5026375;28;20307;-48
2021/06/26 05:14:48;;;;;;;24.48;15.70;;;;;;;17.70;nan;102030.78;5029614;28;20095;-48
2021/06/26 05:17:13;;;;;;;17.58;14.07;;;;;;;17.93;nan;102021.38;5031127;28;20103;-48
2021/06/26 05:19:39;;;;;;;21.13;14.65;;;;;;;18.14;nan;102025.81;5020765;28;20044;-48
2021/06/26 05:22:04;;;;;;;21.95;14.45;;;;;;;18.34;nan;102031.28;5029236;28;20106;-48
2021/06/26 05:24:30;;;;;;;20.55;14.43;;;;;;;18.43;nan;102040.50;5027025;28;20488;-48
2021/06/26 05:26:55;;;;;;;21.02;14.18;;;;;;;18.64;nan;102033.22;5026766;28;20039;-49
2021/06/26 05:29:21;;;;;;;18.23;13.10;;;;;;;18.86;nan;102038.41;5028631;28;20104;-48
2021/06/26 05:31:46;;;;;;;20.08;13.85;;;;;;;18.89;nan;102035.13;5030361;28;20046;-48
2021/06/26 05:34:12;;;;;;;18.10;13.15;;;;;;;19.05;nan;102044.09;5028429;28;20327;-48
2021/06/26 05:36:37;;;;;;;23.48;13.95;;;;;;;19.20;nan;102040.50;5028120;28;20069;-48
2021/06/26 05:39:04;;;;;;;20.08;14.23;;;;;;;19.43;nan;102042.66;5031014;28;20029;-48
2021/06/26 05:41:30;;;;;;;20.05;12.60;;;;;;;19.67;nan;102045.59;5027173;28;20119;-49
2021/06/26 05:43:56;;;;;;;17.05;12.00;;;;;;;19.87;nan;102044.69;5029740;28;20037;-48
2021/06/26 05:46:21;;;;;;;15.00;10.77;;;;;;;20.18;nan;102050.78;5028903;28;20035;-49
2021/06/26 05:48:47;;;;;;;14.13;11.68;;;;;;;20.47;nan;102040.84;5028220;28;20596;-49
2021/06/26 05:51:16;;;;;;;14.43;10.98;;;;;;;20.59;nan;102048.66;5032638;28;20282;-48
2021/06/26 05:53:43;;;;;;;15.75;11.55;;;;;;;20.91;nan;102050.03;5029114;28;20124;-48
2021/06/26 05:56:09;;;;;;;15.20;10.77;;;;;;;21.19;nan;102045.69;5027640;28;20032;-49
2021/06/26 05:58:36;;;;;;;11.40;9.27;;;;;;;21.38;nan;102038.44;5027341;28;20176;-49
2021/06/26 06:01:06;;;;;;;12.27;7.90;;;;;;;21.57;nan;102052.13;5012374;28;20032;-49
2021/06/26 06:03:33;;;;;;;14.88;7.75;;;;;;;21.79;nan;102046.94;5029941;28;21095;-49
2021/06/26 06:05:59;;;;;;;10.68;8.85;;;;;;;22.05;nan;102052.91;5029976;28;20037;-49
2021/06/26 06:08:25;;;;;;;12.88;8.00;;;;;;;22.21;nan;102045.31;5029392;28;20053;-48
2021/06/26 06:10:50;;;;;;;9.95;7.55;;;;;;;22.46;nan;102052.34;5030766;28;20021;-49
2021/06/26 06:13:18;;;;;;;8.88;7.22;;;;;;;22.70;nan;102050.28;5027595;28;20354;-50
2021/06/26 06:15:46;;;;;;;10.40;7.40;;;;;;;22.94;nan;102042.00;5029888;28;20040;-49
2021/06/26 06:18:12;;;;;;;9.68;6.88;;;;;;;23.26;nan;102032.13;5028568;28;20029;-49
2021/06/26 06:20:38;;;;;;;8.80;5.28;;;;;;;23.50;nan;102027.25;4999179;22;20656;-73
2021/06/26 06:23:05;;;;;;;6.63;4.95;;;;;;;23.59;nan;102024.66;4990152;28;20103;-72
2021/06/26 06:25:31;;;;;;;6.10;4.78;;;;;;;23.13;nan;102020.06;4987033;28;20029;-73
2021/06/26 06:27:57;;;;;;;9.25;5.35;;;;;;;22.05;nan;102024.78;4984254;28;20034;-73
2021/06/26 06:30:23;;;;;;;7.07;5.03;;;;;;;22.10;nan;102022.81;4984979;28;20279;-73
2021/06/26 06:32:48;;;;;;;8.45;5.30;;;;;;;22.12;nan;102026.06;4987417;28;20068;-72
2021/06/26 06:35:14;;;;;;;7.78;4.80;;;;;;;22.42;nan;102027.50;4984827;28;20128;-72
2021/06/26 06:37:40;;;;;;;5.32;4.10;;;;;;;22.46;nan;102031.28;4986501;28;20030;-72
2021/06/26 06:40:07;;;;;;;5.93;4.10;;;;;;;22.20;nan;102027.31;4970588;28;20050;-72
2021/06/26 06:42:33;;;;;;;5.53;3.85;;;;;;;22.74;nan;102037.66;4986189;28;20598;-72
2021/06/26 06:44:58;;;;;;;6.82;4.13;;;;;;;22.98;nan;102036.72;4986264;28;21860;-72
2021/06/26 06:47:24;;;;;;;5.35;4.43;;;;;;;23.20;nan;102026.75;4984294;28;20487;-72
2021/06/26 06:49:49;;;;;;;6.07;4.55;;;;;;;23.41;nan;102029.09;4985750;28;20461;-72
2021/06/26 06:52:15;;;;;;;4.40;4.00;;;;;;;23.61;nan;102025.19;4983843;28;20069;-72
2021/06/26 06:54:40;;;;;;;5.00;3.85;;;;;;;23.61;nan;102027.91;4982146;28;20052;-72
2021/06/26 06:57:06;;;;;;;4.80;4.28;;;;;;;23.64;nan;102033.56;4984251;28;20542;-72
2021/06/26 06:59:32;;;;;;;5.25;4.07;;;;;;;23.69;nan;102032.66;4985591;28;20128;-72
2021/06/26 07:01:58;;;;;;;5.90;4.95;;;;;;;23.59;nan;102035.63;4986214;28;20026;-72
2021/06/26 07:04:24;;;;;;;8.65;4.75;;;;;;;23.68;nan;102028.28;4970938;28;20029;-72
2021/06/26 07:06:50;;;;;;;5.47;4.40;;;;;;;23.46;nan;102035.28;4982953;28;20075;-72
2021/06/26 07:09:15;;;;;;;8.43;4.28;;;;;;;23.03;nan;102037.47;4986719;28;20156;-72
2021/06/26 07:11:41;;;;;;;6.15;4.70;;;;;;;23.30;nan;102028.47;4984949;28;21015;-71
2021/06/26 07:14:07;;;;;;;5.63;4.10;;;;;;;23.69;nan;102030.72;4982900;28;20029;-71
2021/06/26 07:16:32;;;;;;;10.77;7.43;;;;;;;23.44;nan;102034.78;4967095;28;20048;-72
2021/06/26 07:18:58;;;;;;;6.22;4.55;;;;;;;23.33;nan;102027.88;4984295;28;20559;-72
2021/06/26 07:21:23;;;;;;;6.72;5.30;;;;;;;23.62;nan;102026.78;4984312;28;20091;-72
2021/06/26 07:23:49;;;;;;;7.20;4.95;;;;;;;23.87;nan;102025.44;4965157;28;20045;-72
2021/06/26 07:26:16;;;;;;;5.43;4.22;;;;;;;24.17;nan;102027.50;4984349;28;20631;-72
2021/06/26 07:28:42;;;;;;;6.10;4.22;;;;;;;23.87;nan;102015.28;4983216;28;20029;-72
2021/06/26 07:31:08;;;;;;;8.02;6.10;;;;;;;23.74;nan;102016.97;4964912;28;20563;-72
2021/06/26 07:33:34;;;;;;;5.63;4.70;;;;;;;23.73;nan;102009.88;4983808;28;20038;-72
2021/06/26 07:35:59;;;;;;;7.40;4.43;;;;;;;24.26;nan;102020.19;4983517;28;20134;-72
2021/06/26 07:38:25;;;;;;;5.47;3.90;;;;;;;24.45;nan;102032.94;4984830;28;20049;-73
2021/06/26 07:40:51;;;;;;;6.40;4.07;;;;;;;24.64;nan;102025.31;4984032;28;20052;-73
2021/06/26 07:43:17;;;;;;;6.43;4.55;;;;;;;25.04;nan;102026.22;4982793;28;20841;-70
2021/06/26 07:45:42;;;;;;;6.05;4.32;;;;;;;24.95;nan;102031.63;4984747;28;20021;-70
2021/06/26 07:48:08;;;;;;;3.95;3.55;;;;;;;25.08;nan;102021.72;4984487;28;20034;-70
2021/06/26 07:50:33;;;;;;;7.13;4.50;;;;;;;25.13;nan;102021.59;4981668;28;20041;-70
2021/06/26 07:52:59;;;;;;;4.75;3.83;;;;;;;25.32;nan;102018.63;4980794;28;20831;-71
2021/06/26 07:55:24;;;;;;;6.60;3.97;;;;;;;25.43;nan;102011.72;4982511;28;20036;-70
2021/06/26 07:57:50;;;;;;;8.60;4.55;;;;;;;23.94;nan;102023.09;4984087;28;20037;-71
2021/06/26 08:00:16;;;;;;;6.18;4.10;;;;;;;24.26;nan;102024.84;4984153;28;20154;-71
2021/06/26 08:02:42;;;;;;;6.20;4.25;;;;;;;24.26;nan;102017.44;4982643;28;20408;-70
2021/06/26 08:05:07;;;;;;;5.45;4.10;;;;;;;23.04;nan;102030.88;4984020;28;20030;-71
2021/06/26 08:07:33;;;;;;;5.72;4.30;;;;;;;23.38;nan;102019.59;4983127;28;20053;-71
2021/06/26 08:09:58;;;;;;;4.70;3.90;;;;;;;23.29;nan;102017.84;4986554;28;20072;-71
2021/06/26 08:12:24;;;;;;;4.43;3.95;;;;;;;23.40;nan;102019.28;4987231;28;20042;-70
2021/06/26 08:14:49;;;;;;;4.72;3.92;;;;;;;23.01;nan;102020.56;4986230;28;20049;-71
2021/06/26 08:17:16;;;;;;;5.82;4.50;;;;;;;22.97;nan;102026.91;4985032;28;21420;-70
2021/06/26 08:19:42;;;;;;;6.78;4.63;;;;;;;23.46;nan;102020.78;4968900;28;20025;-70
2021/06/26 08:22:07;;;;;;;7.68;4.22;;;;;;;24.04;nan;102018.19;4984376;28;20757;-70
2021/06/26 08:24:33;;;;;;;5.22;4.35;;;;;;;23.85;nan;102012.06;4987548;28;20033;-70
2021/06/26 08:27:00;;;;;;;7.18;4.40;;;;;;;23.92;nan;102011.66;4986630;28;20033;-70
2021/06/26 08:29:26;;;;;;;5.57;4.22;;;;;;;23.95;nan;102011.03;4971208;28;20583;-70
2021/06/26 08:31:52;;;;;;;5.90;4.60;;;;;;;22.71;nan;102015.59;4984916;28;20033;-70
2021/06/26 08:34:17;;;;;;;5.53;4.28;;;;;;;23.06;nan;102004.06;4987700;28;20037;-70
2021/06/26 08:36:43;;;;;;;8.23;3.90;;;;;;;23.40;nan;102011.88;4987351;28;20524;-70
2021/06/26 08:39:09;;;;;;;25.42;19.42;;;;;;;23.38;nan;102007.84;4988632;28;20041;-70
2021/06/26 08:41:43;;;;;;;5.50;4.10;;;;;;;23.63;nan;102007.34;4986750;28;20558;-70
2021/06/26 08:44:11;;;;;;;5.07;4.10;;;;;;;23.92;nan;102008.91;4987782;28;20081;-70
2021/06/26 08:46:41;;;;;;;5.28;3.88;;;;;;;23.69;nan;102000.63;4986008;28;20039;-70
2021/06/26 08:49:08;;;;;;;7.43;4.57;;;;;;;23.77;nan;102010.88;4986738;28;20076;-70
2021/06/26 08:51:34;;;;;;;5.65;4.70;;;;;;;24.54;nan;102007.19;4989800;28;20038;-70
2021/06/26 08:54:00;;;;;;;5.00;4.35;;;;;;;24.82;nan;102002.38;4990613;28;20033;-70
2021/06/26 08:56:25;;;;;;;5.60;4.38;;;;;;;25.07;nan;102006.41;4980207;28;20038;-70
2021/06/26 08:58:51;;;;;;;8.52;4.78;;;;;;;25.03;nan;101999.94;4971207;28;20391;-70
2021/06/26 09:01:16;;;;;;;6.88;4.22;;;;;;;25.84;nan;101988.56;4989396;28;20029;-70
2021/06/26 09:03:42;;;;;;;6.32;4.38;;;;;;;26.48;nan;101988.75;4985853;28;20036;-70
2021/06/26 09:06:07;;;;;;;5.43;4.43;;;;;;;27.07;nan;101987.00;4980735;28;20048;-70
2021/06/26 09:08:33;;;;;;;5.55;3.22;;;;;;;27.05;nan;101996.72;4981547;28;20034;-70
2021/06/26 09:10:59;;;;;;;3.25;2.90;;;;;;;27.06;nan;101995.56;4984752;28;20061;-71
2021/06/26 09:13:27;;;;;;;5.32;3.50;;;;;;;27.35;nan;101981.03;4986225;28;20044;-71
2021/06/26 09:16:11;;;;;;;7.80;3.78;;;;;;;27.74;nan;101982.59;4988444;28;20029;-71
2021/06/26 09:18:47;;;;;;;4.35;3.45;;;;;;;28.21;nan;101988.72;4988900;28;20030;-71
2021/06/26 09:21:33;;;;;;;6.05;4.15;;;;;;;28.08;nan;101977.97;4982218;28;20045;-71
2021/06/26 09:24:08;;;;;;;3.95;3.15;;;;;;;27.52;nan;101985.66;4985875;28;20480;-71
2021/06/26 09:26:35;;;;;;;;;;;;;;;27.50;nan;101988.72;4989741;28;20462;-71
2021/06/26 09:29:16;;;;;;;3.70;2.90;;;;;;;27.33;nan;101984.13;4966332;28;19925;-71
2021/06/26 09:32:01;;;;;;;5.22;3.03;;;;;;;27.45;nan;101979.84;4981156;28;20086;-71
2021/06/26 09:34:45;;;;;;;5.60;3.40;;;;;;;27.52;nan;101980.13;4967744;28;20034;-71
2021/06/26 09:37:13;;;;;;;6.95;3.88;;;;;;;28.15;nan;101980.97;4985461;28;20091;-71
2021/06/26 09:39:41;;;;;;;4.82;3.38;;;;;;;28.28;nan;101985.44;4987778;28;20025;-71
2021/06/26 09:42:16;;;;;;;3.60;3.05;;;;;;;27.84;nan;101987.72;4988180;28;20026;-71
2021/06/26 09:44:57;;;;;;;4.15;3.38;;;;;;;27.03;nan;101990.75;4988009;28;20033;-71
2021/06/26 09:47:38;;;;;;;5.55;3.45;;;;;;;27.09;nan;101981.97;4986723;28;20014;-71
2021/06/26 09:50:20;;;;;;;4.28;2.95;;;;;;;27.10;nan;101977.25;4985792;28;20061;-71
2021/06/26 09:52:48;;;;;;;3.83;3.25;;;;;;;26.77;nan;101979.81;4987739;28;20492;-71
2021/06/26 09:55:15;;;;;;;3.45;3.15;;;;;;;26.91;nan;101985.09;4966886;28;20033;-71
2021/06/26 09:57:40;;;;;;;3.95;3.20;;;;;;;27.31;nan;101972.66;4987172;28;20037;-71
2021/06/26 10:00:08;;;;;;;3.85;3.00;;;;;;;27.17;nan;101980.31;4987907;28;20391;-71
2021/06/26 10:02:34;;;;;;;3.97;3.15;;;;;;;27.35;nan;101972.78;4987718;28;20030;-71
2021/06/26 10:05:01;;;;;;;4.25;3.03;;;;;;;27.55;nan;101977.53;4988294;28;20156;-71
2021/06/26 10:07:29;;;;;;;5.68;3.60;;;;;;;27.89;nan;101968.25;4983881;28;20128;-71
2021/06/26 10:09:54;;;;;;;4.97;3.50;;;;;;;27.58;nan;101970.53;4970997;28;20075;-71
2021/06/26 10:12:20;;;;;;;4.18;3.00;;;;;;;27.77;nan;101973.66;4986293;28;20484;-71
2021/06/26 10:14:47;;;;;;;3.60;2.60;;;;;;;27.75;nan;101970.44;4987776;28;20113;-71
2021/06/26 10:17:14;;;;;;;3.10;2.90;;;;;;;27.07;nan;101980.69;4970091;28;20037;-71
2021/06/26 10:19:40;;;;;;;4.32;2.38;;;;;;;27.01;nan;101977.31;4970722;28;20484;-70
2021/06/26 10:22:06;;;;;;;4.18;2.53;;;;;;;27.23;nan;101976.25;4966333;28;20061;-70
2021/06/26 10:24:31;;;;;;;2.75;2.35;;;;;;;27.25;nan;101976.72;4987085;28;20075;-70
2021/06/26 10:26:57;;;;;;;3.65;2.20;;;;;;;27.82;nan;101973.47;4983690;28;20132;-70
2021/06/26 10:29:36;;;;;;;3.63;2.47;;;;;;;28.77;nan;101974.56;4985480;28;20033;-70
2021/06/26 10:32:13;;;;;;;5.53;2.55;;;;;;;28.95;nan;101975.19;4981297;28;20640;-70
2021/06/26 10:34:46;;;;;;;3.92;2.63;;;;;;;29.04;nan;101968.41;4987141;28;20124;-70
2021/06/26 10:37:15;;;;;;;3.20;2.85;;;;;;;28.96;nan;101974.03;4987899;28;20064;-70
2021/06/26 10:39:40;;;;;;;3.20;2.65;;;;;;;28.72;nan;101972.81;4967197;28;20030;-70
2021/06/26 10:42:08;;;;;;;3.20;2.03;;;;;;;28.65;nan;101972.56;4982802;28;20052;-70
2021/06/26 10:44:50;;;;;;;4.35;2.55;;;;;;;28.60;nan;101975.56;4988282;28;20916;-70
2021/06/26 10:47:34;;;;;;;3.42;2.70;;;;;;;28.55;nan;101971.06;4985403;28;20030;-70
2021/06/26 10:50:14;;;;;;;6.82;5.30;;;;;;;29.01;nan;101984.84;4983603;28;21929;-70
2021/06/26 10:52:55;;;;;;;3.72;3.33;;;;;;;29.73;nan;101967.44;4986797;28;20048;-70
2021/06/26 10:55:30;;;;;;;16.85;11.73;;;;;;;30.16;nan;101967.91;4987373;28;20044;-70
2021/06/26 10:57:55;;;;;;;;;;;;;;;30.46;nan;101965.56;4988086;28;20038;-71
2021/06/26 11:00:38;;;;;;;5.07;3.92;;;;;;;30.56;nan;101965.88;4986570;28;19924;-71
2021/06/26 11:03:06;;;;;;;4.88;4.43;;;;;;;30.90;nan;101950.56;4986322;28;20025;-71
2021/06/26 11:05:36;;;;;;;3.63;3.20;;;;;;;30.54;nan;101946.06;4969539;28;20117;-71
2021/06/26 11:08:14;;;;;;;2.72;1.92;;;;;;;29.83;nan;101951.53;4986479;28;20594;-71
2021/06/26 11:10:59;;;;;;;5.97;2.38;;;;;;;29.08;nan;101961.03;4978923;28;20026;-71
2021/06/26 11:13:27;;;;;;;3.70;2.13;;;;;;;28.63;nan;101958.31;4983785;28;20608;-71
2021/06/26 11:16:04;;;;;;;3.22;2.60;;;;;;;28.25;nan;101959.38;4983242;28;20080;-71
2021/06/26 11:18:30;;;;;;;3.20;2.75;;;;;;;28.04;nan;101957.75;4980374;28;20064;-71
2021/06/26 11:20:58;;;;;;;3.42;2.70;;;;;;;28.82;nan;101949.50;4967871;28;22078;-72
2021/06/26 11:23:24;;;;;;;2.60;2.40;;;;;;;29.48;nan;101949.31;4984114;28;22678;-71
2021/06/26 11:25:50;;;;;;;3.97;2.42;;;;;;;29.90;nan;101947.03;4985288;28;20144;-71
2021/06/26 11:28:18;;;;;;;2.60;2.15;;;;;;;30.21;nan;101938.06;4983857;28;20087;-71
2021/06/26 11:30:57;;;;;;;4.60;2.47;;;;;;;30.01;nan;101937.09;4982043;28;20025;-71
2021/06/26 11:33:32;;;;;;;3.47;2.00;;;;;;;29.78;nan;101945.09;4984659;28;20024;-71